Weather at Ithaca Tompkins Regional Airport

Public forecast

Using degrees Fahrenheit for public forecast. Weather courtesy of forecast.io.

Current aviation weather report (METAR) for Ithaca Tompkins Regional Airport

Retrieved 2021/03/05 04:56 UTC (59 minutes ago):

KITH 050456Z AUTO 31013G20KT 10SM BKN033 M08/M14 A3001 RMK AO2 SLP178 T10831139

Aviation forecast (TAF) for Ithaca Tompkins Regional Airport

Retrieved 2021-03-05 00:48 UTC (5 hours ago):

TAF KITH 042345Z 0500/0524 32015G26KT P6SM SCT150 FM050300 31010G18KT P6SM BKN050 TEMPO 0504/0506 6SM -SHSN FM050600 31010KT P6SM BKN050 FM051100 30013G21KT P6SM SCT090